»·PEaware :: WJA5175 KONT-KLAS

WJA5175 :: KONT-KLAS

FLIGHT INFORMATION

Flight Status: Arrived
Operator:
Westjet Airlines
More flights by this operator :: More flights under this callsign
Pilot: Nehseem A. (13724)
Aircraft: BOEING 737-200
(B732)
More flights by this aircraft type
Origin: KONT Ontario Intl
United States
Destination: KLAS McCarran Intl
United States
More flights between these airports :: More routes between these airports
Route: +POM9 DAG CLARR3
File this flight plan on PilotEdge
Remarks:
Altitude:
(Current/Filed)
27,000ft
Speed:
(Current/Filed)
437kts
Departed: 27-Jan-18 11:19 AM
Arrived: 27-Jan-18 12:12 PM
Distance/Time
Traveled:
171nm/0:53
Distance/Time
To Go:
Arrived

Flight Plot

Page will automatically refresh every two minutes.

Flight plan parsing failed; only flown route is shown


Map Options




Map Legend


Flown Route
Filed Route
Departure Airport
Arrival Airport
Navaid (VOR, NDB)
Fix

Horizontal Profiles

Position Reports

Time Latitude Longitude Heading Altitude Ground
Speed
27-Jan-18 10:13 34.059718 -117.598382 1 952ft 0kts
27-Jan-18 10:14 34.059718 -117.598382 1 952ft 0kts
27-Jan-18 10:15 34.059718 -117.598382 1 952ft 0kts
27-Jan-18 10:16 34.059718 -117.598382 1 952ft 0kts
27-Jan-18 10:17 34.059718 -117.598382 1 952ft 0kts
27-Jan-18 10:18 34.059718 -117.598382 1 952ft 0kts
27-Jan-18 10:19 34.059718 -117.598382 1 952ft 0kts
27-Jan-18 10:20 34.059718 -117.598382 1 952ft 0kts
27-Jan-18 10:21 34.059718 -117.598382 1 952ft 0kts
27-Jan-18 10:22 34.059718 -117.598382 1 952ft 0kts
27-Jan-18 10:23 34.059718 -117.598382 1 952ft 0kts
27-Jan-18 10:24 34.059718 -117.598382 1 952ft 0kts
27-Jan-18 10:25 34.059718 -117.598382 1 952ft 0kts
27-Jan-18 10:26 34.059718 -117.598382 1 952ft 0kts
27-Jan-18 10:27 34.059718 -117.598382 1 952ft 0kts
27-Jan-18 10:28 34.059718 -117.598382 1 952ft 0kts
27-Jan-18 10:29 34.059718 -117.598382 1 952ft 0kts
27-Jan-18 10:30 34.059718 -117.598382 1 952ft 0kts
27-Jan-18 10:31 34.059718 -117.598382 1 952ft 0kts
27-Jan-18 10:38 34.059718 -117.598382 1 952ft 0kts
27-Jan-18 10:39 34.059718 -117.598382 1 952ft 0kts
27-Jan-18 10:40 34.059718 -117.598382 1 952ft 0kts
27-Jan-18 10:41 34.059718 -117.598382 1 952ft 0kts
27-Jan-18 10:42 34.059718 -117.598382 1 952ft 0kts
27-Jan-18 10:43 34.059718 -117.598382 1 952ft 0kts
27-Jan-18 10:44 34.059718 -117.598382 1 952ft 0kts
27-Jan-18 10:45 34.059718 -117.598382 1 952ft 0kts
27-Jan-18 10:46 34.059718 -117.598382 1 952ft 0kts
27-Jan-18 10:47 34.059718 -117.598382 1 952ft 0kts
27-Jan-18 10:48 34.059718 -117.598382 1 952ft 0kts
27-Jan-18 10:49 34.059718 -117.598382 1 952ft 0kts
27-Jan-18 10:50 34.059718 -117.598382 1 952ft 0kts
27-Jan-18 10:51 34.059718 -117.598382 1 952ft 0kts
27-Jan-18 10:52 34.059718 -117.598382 1 952ft 0kts
27-Jan-18 10:53 34.059718 -117.598382 1 952ft 0kts
27-Jan-18 10:54 34.059718 -117.598382 1 952ft 0kts
27-Jan-18 10:55 34.059718 -117.598382 1 952ft 0kts
27-Jan-18 10:56 34.059718 -117.598382 1 952ft 0kts
27-Jan-18 10:57 34.059718 -117.598382 1 952ft 0kts
27-Jan-18 10:58 34.059718 -117.598382 1 952ft 0kts
27-Jan-18 10:59 34.059718 -117.598382 1 952ft 0kts
27-Jan-18 11:00 34.059718 -117.598382 1 952ft 0kts
27-Jan-18 11:01 34.059718 -117.598382 1 952ft 0kts
27-Jan-18 11:02 34.059718 -117.598382 1 952ft 0kts
27-Jan-18 11:03 34.059718 -117.598382 1 952ft 0kts
27-Jan-18 11:04 34.059718 -117.598382 1 952ft 0kts
27-Jan-18 11:05 34.059718 -117.598382 1 952ft 0kts
27-Jan-18 11:06 34.059718 -117.598382 1 952ft 0kts
27-Jan-18 11:07 34.059718 -117.598382 1 952ft 0kts
27-Jan-18 11:08 34.059718 -117.598382 1 952ft 0kts
27-Jan-18 11:09 34.059718 -117.598382 1 952ft 0kts
27-Jan-18 11:10 34.059718 -117.598382 1 952ft 0kts
27-Jan-18 11:11 34.059717 -117.598382 1 952ft 0kts
27-Jan-18 11:12 34.059314 -117.598394 1 952ft 2kts
27-Jan-18 11:13 34.058998 -117.598608 90 952ft 1kts
27-Jan-18 11:14 34.058999 -117.598624 90 952ft 0kts
27-Jan-18 11:15 34.058999 -117.598624 90 952ft 0kts
27-Jan-18 11:16 34.058999 -117.598624 89 952ft 0kts
27-Jan-18 11:17 34.058999 -117.598624 89 952ft 0kts
27-Jan-18 11:18 34.058999 -117.598624 89 952ft 0kts
27-Jan-18 11:19 34.058999 -117.598624 89 952ft 0kts
27-Jan-18 11:20 34.059010 -117.594585 89 951ft 26kts
27-Jan-18 11:21 34.058989 -117.583772 90 952ft 34kts
27-Jan-18 11:22 34.057966 -117.582349 180 951ft 0kts
27-Jan-18 11:23 34.057966 -117.582349 180 951ft 0kts
27-Jan-18 11:24 34.056948 -117.582531 240 951ft 10kts
27-Jan-18 11:25 34.056607 -117.612143 268 1269ft 185kts
27-Jan-18 11:26 34.055357 -117.672713 269 3957ft 208kts
27-Jan-18 11:27 34.051699 -117.741908 268 6084ft 243kts
27-Jan-18 11:28 34.093650 -117.798845 328 7405ft 254kts
27-Jan-18 11:29 34.135572 -117.858411 303 8545ft 239kts
27-Jan-18 11:30 34.169910 -117.927742 306 10155ft 245kts
27-Jan-18 11:31 34.213447 -117.989858 318 11914ft 262kts
27-Jan-18 11:32 34.260298 -118.061476 316 13520ft 284kts
27-Jan-18 11:33 34.335955 -118.087982 9 14138ft 329kts
27-Jan-18 11:34 34.402664 -118.012555 69 14910ft 344kts
27-Jan-18 11:35 34.401671 -117.893976 90 16660ft 356kts
27-Jan-18 11:36 34.421799 -117.784403 64 19034ft 343kts
27-Jan-18 11:37 34.462027 -117.681288 54 21121ft 351kts
27-Jan-18 11:38 34.511711 -117.577678 53 22753ft 369kts
27-Jan-18 11:39 34.563677 -117.470579 56 24717ft 372kts
27-Jan-18 11:40 34.611448 -117.356538 58 25689ft 397kts
27-Jan-18 11:41 34.661480 -117.240815 56 27142ft 399kts
27-Jan-18 11:42 34.720739 -117.123333 55 27402ft 431kts
27-Jan-18 11:43 34.778128 -116.997033 56 27392ft 426kts
27-Jan-18 11:44 34.833298 -116.872461 57 27385ft 415kts
27-Jan-18 11:45 34.887119 -116.750018 56 27393ft 415kts
27-Jan-18 11:46 34.941308 -116.626326 56 27383ft 416kts
27-Jan-18 11:47 34.991747 -116.508301 57 26302ft 381kts
27-Jan-18 11:48 35.037490 -116.395715 57 24752ft 366kts
27-Jan-18 11:49 35.084736 -116.291233 55 24402ft 370kts
27-Jan-18 11:50 35.130924 -116.188195 56 23566ft 366kts
27-Jan-18 11:51 35.186573 -116.091219 22 21485ft 342kts
27-Jan-18 11:52 35.277219 -116.089428 353 19068ft 336kts
27-Jan-18 11:53 35.358783 -116.057848 49 16774ft 353kts
27-Jan-18 11:54 35.426851 -115.978724 39 14623ft 342kts
27-Jan-18 11:55 35.492023 -115.900219 43 13247ft 311kts
27-Jan-18 11:56 35.549246 -115.826993 42 12866ft 281kts
27-Jan-18 11:57 35.605311 -115.755782 42 13068ft 300kts
27-Jan-18 11:58 35.661912 -115.682807 42 13090ft 290kts
27-Jan-18 11:59 35.714801 -115.613955 42 13095ft 271kts
27-Jan-18 12:00 35.770639 -115.547283 24 13111ft 290kts
27-Jan-18 12:01 35.847966 -115.543299 356 12637ft 286kts
27-Jan-18 12:02 35.923254 -115.547618 356 11303ft 264kts
27-Jan-18 12:03 35.992295 -115.551230 357 10959ft 237kts
27-Jan-18 12:04 36.035477 -115.501726 89 11244ft 278kts
27-Jan-18 12:05 36.031790 -115.405040 89 10456ft 289kts
27-Jan-18 12:06 36.028219 -115.313302 91 9216ft 281kts
27-Jan-18 12:07 36.022972 -115.238776 93 8269ft 274kts
27-Jan-18 12:08 36.014705 -115.137172 91 7911ft 256kts
27-Jan-18 12:09 36.011843 -115.065122 88 7980ft 248kts
27-Jan-18 12:10 36.010314 -114.978382 92 7282ft 250kts
27-Jan-18 12:11 36.016695 -114.882053 46 5893ft 242kts
27-Jan-18 12:12 36.063089 -114.880484 316 5103ft 225kts
27-Jan-18 12:13 36.074274 -114.949969 268 4287ft 200kts
27-Jan-18 12:14 36.073465 -115.009422 271 3375ft 148kts
27-Jan-18 12:15 36.073578 -115.058852 271 2920ft 138kts
27-Jan-18 12:16 36.073689 -115.106839 271 2452ft 144kts
27-Jan-18 12:17 36.073617 -115.146388 273 2150ft 49kts
27-Jan-18 12:18 36.074872 -115.150786 307 2150ft 0kts
27-Jan-18 12:19 36.074872 -115.150786 307 2150ft 0kts
27-Jan-18 12:20 36.075978 -115.151716 337 2150ft 17kts
27-Jan-18 12:21 36.079574 -115.152022 355 2150ft 14kts
27-Jan-18 12:22 36.082285 -115.150928 1 2150ft 0kts
27-Jan-18 12:23 36.082313 -115.150928 0 2150ft 0kts

Navigation Log

Ident Type
Flight plan parsing failed, navigation log unavailable